Time;durP1;ratioP1;P1;durP2;ratioP2;P2;SDS_P1;SDS_P2;PMS_P1;PMS_P2;Temp;Humidity;BMP_temperature;BMP_pressure;BME280_temperature;BME280_humidity;BME280_pressure;Samples;Min_cycle;Max_cycle;Signal;HPM_P1;HPM_P2
2024/04/18 00:00:30;;;;;;;1.83;1.35;;;6.60;90.70;;;;;;5487992;26;20002;-36
2024/04/18 00:02:55;;;;;;;2.88;1.70;;;6.60;90.70;;;;;;5487774;26;20062;-33
2024/04/18 00:05:21;;;;;;;2.17;1.50;;;6.60;90.70;;;;;;5487511;26;20009;-35
2024/04/18 00:07:46;;;;;;;2.22;1.50;;;6.60;90.70;;;;;;5487118;26;20006;-35
2024/04/18 00:10:15;;;;;;;1.85;1.27;;;6.60;90.70;;;;;;5487792;26;20017;-35
2024/04/18 00:12:41;;;;;;;3.22;1.38;;;6.50;90.70;;;;;;5487802;26;20013;-35
2024/04/18 00:15:10;;;;;;;1.27;1.17;;;6.50;90.70;;;;;;5487654;26;20004;-36
2024/04/18 00:17:36;;;;;;;1.40;1.30;;;6.50;90.70;;;;;;5487795;26;19998;-35
2024/04/18 00:20:03;;;;;;;1.50;1.40;;;6.50;90.80;;;;;;5487649;26;19998;-36
2024/04/18 00:22:29;;;;;;;1.70;1.30;;;6.50;90.80;;;;;;5487997;26;20013;-36
2024/04/18 00:24:55;;;;;;;3.40;1.65;;;6.40;90.80;;;;;;5487802;26;19998;-36
2024/04/18 00:27:20;;;;;;;3.75;1.40;;;6.40;90.80;;;;;;5488011;26;19998;-37
2024/04/18 00:29:46;;;;;;;2.25;1.40;;;6.40;91.10;;;;;;5487881;26;20010;-34
2024/04/18 00:32:14;;;;;;;1.50;1.38;;;6.40;90.90;;;;;;5487616;26;20002;-35
2024/04/18 00:34:40;;;;;;;2.17;1.48;;;6.40;90.90;;;;;;5487263;26;20014;-35
2024/04/18 00:37:06;;;;;;;1.80;1.30;;;6.40;90.90;;;;;;5487612;26;20034;-35
2024/04/18 00:39:32;;;;;;;1.80;1.38;;;6.50;90.90;;;;;;5487694;26;20026;-36
2024/04/18 00:41:59;;;;;;;1.48;1.38;;;6.40;90.90;;;;;;5487428;26;20006;-35
2024/04/18 00:44:24;;;;;;;2.60;1.40;;;6.40;90.90;;;;;;5487481;26;20002;-35
2024/04/18 00:46:50;;;;;;;2.22;1.63;;;6.40;90.90;;;;;;5487760;26;20021;-36
2024/04/18 00:49:16;;;;;;;2.03;1.40;;;6.40;90.90;;;;;;5487460;26;20009;-35
2024/04/18 00:51:43;;;;;;;2.13;1.50;;;6.30;90.90;;;;;;5487521;26;20314;-35
2024/04/18 00:54:09;;;;;;;1.55;1.30;;;6.30;91.00;;;;;;5487433;26;20017;-36
2024/04/18 00:56:36;;;;;;;2.17;1.40;;;6.30;91.00;;;;;;5487456;26;19998;-35
2024/04/18 00:59:03;;;;;;;1.55;1.20;;;6.20;91.10;;;;;;5487567;26;20013;-34
2024/04/18 01:01:29;;;;;;;1.50;1.25;;;6.20;91.10;;;;;;5485493;26;19994;-36
2024/04/18 01:03:56;;;;;;;1.95;1.40;;;6.20;91.10;;;;;;5487278;26;19998;-36
2024/04/18 01:06:23;;;;;;;1.90;1.60;;;6.20;91.10;;;;;;5486763;26;20035;-36
2024/04/18 01:08:49;;;;;;;2.08;1.35;;;6.10;91.10;;;;;;5487450;26;20005;-36
2024/04/18 01:11:15;;;;;;;3.90;1.38;;;6.00;91.10;;;;;;5487091;26;20074;-34
2024/04/18 01:13:40;;;;;;;1.60;1.08;;;6.00;91.20;;;;;;5487364;26;19998;-36
2024/04/18 01:16:06;;;;;;;2.10;1.40;;;6.00;91.20;;;;;;5486887;26;19998;-34
2024/04/18 01:18:32;;;;;;;1.80;1.33;;;6.00;91.20;;;;;;5487061;26;20348;-36
2024/04/18 01:20:57;;;;;;;1.30;1.20;;;5.90;91.30;;;;;;5487180;26;20012;-36
2024/04/18 01:23:26;;;;;;;1.77;1.05;;;5.90;91.30;;;;;;5486958;26;20396;-36
2024/04/18 01:25:51;;;;;;;1.52;1.08;;;5.80;91.30;;;;;;5487096;26;20017;-36
2024/04/18 01:28:17;;;;;;;1.83;1.00;;;5.80;91.40;;;;;;5486884;26;20002;-36
2024/04/18 01:30:43;;;;;;;1.17;1.05;;;5.80;91.40;;;;;;5486916;26;20066;-35
2024/04/18 01:33:09;;;;;;;1.35;1.08;;;5.80;91.40;;;;;;5484991;26;20024;-35
2024/04/18 01:35:34;;;;;;;2.28;1.23;;;5.70;91.40;;;;;;5484913;26;20474;-35
2024/04/18 01:38:00;;;;;;;1.77;1.35;;;5.70;91.50;;;;;;5484848;26;19994;-36
2024/04/18 01:40:25;;;;;;;2.63;1.20;;;5.70;91.50;;;;;;5486725;26;20002;-35
2024/04/18 01:42:51;;;;;;;1.40;1.10;;;5.70;91.50;;;;;;5486415;26;20450;-36
2024/04/18 01:45:17;;;;;;;2.33;1.27;;;5.70;91.50;;;;;;5485976;26;20013;-35
2024/04/18 01:47:42;;;;;;;1.63;1.17;;;5.60;91.50;;;;;;5486558;26;20003;-35
2024/04/18 01:50:09;;;;;;;1.85;1.13;;;5.60;91.50;;;;;;5486367;26;20009;-36
2024/04/18 01:52:35;;;;;;;1.60;1.23;;;5.60;91.50;;;;;;5486061;26;20384;-35
2024/04/18 01:55:01;;;;;;;2.50;1.20;;;5.60;91.60;;;;;;5485908;26;20013;-35
2024/04/18 01:57:27;;;;;;;2.67;1.15;;;5.50;91.60;;;;;;5486526;26;20014;-35
2024/04/18 01:59:52;;;;;;;3.33;1.40;;;5.50;91.60;;;;;;5486206;26;20002;-35
2024/04/18 02:02:18;;;;;;;1.35;1.25;;;5.50;91.60;;;;;;5485799;26;20002;-36
2024/04/18 02:04:44;;;;;;;1.98;1.25;;;5.40;91.60;;;;;;5486017;26;20010;-34
2024/04/18 02:07:10;;;;;;;3.05;1.25;;;5.40;91.60;;;;;;5485842;26;20503;-35
2024/04/18 02:09:35;;;;;;;1.30;1.20;;;5.40;91.60;;;;;;5485706;26;20451;-33
2024/04/18 02:12:01;;;;;;;1.63;1.10;;;5.40;91.60;;;;;;5485829;26;20010;-36
2024/04/18 02:14:26;;;;;;;2.20;1.10;;;5.30;91.60;;;;;;5489481;26;20013;-34
2024/04/18 02:16:52;;;;;;;3.03;1.20;;;5.30;91.60;;;;;;5489597;26;20036;-36
2024/04/18 02:19:17;;;;;;;3.45;1.45;;;5.20;91.70;;;;;;5489634;26;20025;-36
2024/04/18 02:21:43;;;;;;;1.73;0.80;;;5.20;91.70;;;;;;5489799;26;20002;-36
2024/04/18 02:24:08;;;;;;;1.88;1.13;;;5.20;91.70;;;;;;5489581;26;20442;-36
2024/04/18 02:26:35;;;;;;;1.60;1.20;;;5.10;91.70;;;;;;5489449;26;20350;-36
2024/04/18 02:29:01;;;;;;;2.42;1.10;;;5.20;91.70;;;;;;5489489;26;20002;-35
2024/04/18 02:31:27;;;;;;;2.65;1.30;;;5.10;91.80;;;;;;5489550;26;20456;-36
2024/04/18 02:33:52;;;;;;;2.38;1.30;;;5.10;91.80;;;;;;5489690;26;20018;-35
2024/04/18 02:36:19;;;;;;;1.85;1.40;;;5.10;91.80;;;;;;5489213;26;20002;-35
2024/04/18 02:38:44;;;;;;;1.20;1.10;;;5.10;91.80;;;;;;5489074;26;19998;-36
2024/04/18 02:41:10;;;;;;;2.88;1.50;;;5.00;91.80;;;;;;5489353;26;20456;-36
2024/04/18 02:43:36;;;;;;;2.65;1.27;;;5.00;91.80;;;;;;5489332;26;20002;-36
2024/04/18 02:46:01;;;;;;;1.73;1.10;;;5.00;91.80;;;;;;5489410;26;20038;-34
2024/04/18 02:48:27;;;;;;;2.03;1.30;;;4.90;91.80;;;;;;5489324;26;20070;-35
2024/04/18 02:50:52;;;;;;;2.00;1.40;;;4.90;91.80;;;;;;5489665;26;20009;-34
2024/04/18 02:53:18;;;;;;;1.45;1.05;;;4.90;91.90;;;;;;5489348;26;20336;-36
2024/04/18 02:55:44;;;;;;;4.72;1.35;;;4.90;91.90;;;;;;5489024;26;20411;-36
2024/04/18 02:58:09;;;;;;;3.83;1.27;;;4.80;91.80;;;;;;5489113;26;19998;-36
2024/04/18 03:00:35;;;;;;;2.20;1.30;;;4.80;91.90;;;;;;5489070;26;20071;-35
2024/04/18 03:03:01;;;;;;;2.47;1.27;;;4.80;91.90;;;;;;5488776;26;20006;-36
2024/04/18 03:05:27;;;;;;;1.95;1.40;;;4.80;91.90;;;;;;5488699;26;19998;-36
2024/04/18 03:07:56;;;;;;;4.05;1.40;;;4.70;91.90;;;;;;5486705;26;20044;-35
2024/04/18 03:10:22;;;;;;;1.63;1.33;;;4.70;91.90;;;;;;5488509;26;20466;-36
2024/04/18 03:12:48;;;;;;;3.72;1.40;;;4.70;91.90;;;;;;5488682;26;20133;-36
2024/04/18 03:15:13;;;;;;;3.92;1.52;;;4.70;92.00;;;;;;5488528;26;20009;-36
2024/04/18 03:17:39;;;;;;;2.70;1.40;;;4.70;92.00;;;;;;5489054;26;19998;-34
2024/04/18 03:20:05;;;;;;;2.30;1.40;;;4.70;92.00;;;;;;5489017;26;20477;-36
2024/04/18 03:22:31;;;;;;;2.50;1.38;;;4.60;91.90;;;;;;5488752;26;19998;-37
2024/04/18 03:24:58;;;;;;;1.88;1.40;;;4.60;91.90;;;;;;5487834;26;20009;-35
2024/04/18 03:27:23;;;;;;;2.35;1.48;;;4.60;92.00;;;;;;5488792;26;20013;-35
2024/04/18 03:29:49;;;;;;;2.42;1.30;;;4.60;91.90;;;;;;5488622;26;20010;-35
2024/04/18 03:32:15;;;;;;;3.90;1.50;;;4.60;91.90;;;;;;5488515;26;20376;-36
2024/04/18 03:34:41;;;;;;;2.42;1.30;;;4.60;91.90;;;;;;5486663;26;19998;-36
2024/04/18 03:37:06;;;;;;;3.47;1.33;;;4.60;91.90;;;;;;5488397;26;20006;-36
2024/04/18 03:39:32;;;;;;;3.03;1.55;;;4.60;91.90;;;;;;5488556;26;20002;-35
2024/04/18 03:41:58;;;;;;;2.20;1.30;;;4.50;91.90;;;;;;5488423;26;20062;-34
2024/04/18 03:44:24;;;;;;;3.78;1.17;;;4.50;91.80;;;;;;5488161;26;20341;-36
2024/04/18 03:46:49;;;;;;;2.15;1.30;;;4.50;91.80;;;;;;5488457;26;20002;-35
2024/04/18 03:49:15;;;;;;;3.97;1.50;;;4.50;91.80;;;;;;5488647;26;19999;-36
2024/04/18 03:51:40;;;;;;;3.72;1.70;;;4.40;91.80;;;;;;5488694;26;19998;-38
2024/04/18 03:54:06;;;;;;;2.25;1.38;;;4.40;91.80;;;;;;5488344;26;19998;-36
2024/04/18 03:56:32;;;;;;;3.85;1.50;;;4.40;91.80;;;;;;5488167;26;20008;-44
2024/04/18 03:58:57;;;;;;;4.68;1.63;;;4.30;91.80;;;;;;5488925;26;20320;-36
2024/04/18 04:01:28;;;;;;;3.35;1.40;;;4.30;91.80;;;;;;5488184;26;20013;-36
2024/04/18 04:03:53;;;;;;;2.35;1.27;;;4.30;91.80;;;;;;5488604;26;20030;-36
2024/04/18 04:06:20;;;;;;;6.72;1.60;;;4.20;91.80;;;;;;5488162;26;20377;-36
2024/04/18 04:08:46;;;;;;;3.35;1.30;;;4.20;91.90;;;;;;5487988;26;20419;-35
2024/04/18 04:11:13;;;;;;;2.75;1.50;;;4.20;91.90;;;;;;5488032;26;19998;-41
2024/04/18 04:13:39;;;;;;;4.00;1.90;;;4.20;91.90;;;;;;5488108;26;20515;-36
2024/04/18 04:16:05;;;;;;;3.50;1.42;;;4.10;91.90;;;;;;5487798;26;20010;-35
2024/04/18 04:18:30;;;;;;;2.28;1.52;;;4.10;91.90;;;;;;5488303;26;20018;-36
2024/04/18 04:20:56;;;;;;;2.40;1.50;;;4.10;91.90;;;;;;5488137;26;19998;-37
2024/04/18 04:23:21;;;;;;;2.47;1.50;;;4.10;91.90;;;;;;5488068;26;20499;-38
2024/04/18 04:25:48;;;;;;;3.08;1.48;;;4.10;91.90;;;;;;5487812;26;20442;-34
2024/04/18 04:28:13;;;;;;;5.68;2.03;;;4.10;91.90;;;;;;5487889;26;20070;-37
2024/04/18 04:30:39;;;;;;;3.90;1.70;;;4.00;91.90;;;;;;5487827;26;20338;-37
2024/04/18 04:33:04;;;;;;;3.35;1.80;;;4.00;91.90;;;;;;5487775;26;20409;-35
2024/04/18 04:35:30;;;;;;;2.70;1.73;;;4.00;91.90;;;;;;5487494;26;20376;-38
2024/04/18 04:37:56;;;;;;;2.47;1.55;;;4.00;91.90;;;;;;5485639;26;20430;-34
2024/04/18 04:40:21;;;;;;;3.25;1.52;;;4.00;91.90;;;;;;5487620;26;20010;-36
2024/04/18 04:42:47;;;;;;;1.55;1.45;;;4.00;91.90;;;;;;5487235;26;20112;-36
2024/04/18 04:45:12;;;;;;;1.70;1.60;;;3.90;91.90;;;;;;5486877;26;19998;-36
2024/04/18 04:47:38;;;;;;;3.17;1.77;;;4.00;91.90;;;;;;5487380;26;20455;-37
2024/04/18 04:50:04;;;;;;;3.13;1.70;;;4.00;92.00;;;;;;5487178;26;20002;-36
2024/04/18 04:52:30;;;;;;;2.88;1.73;;;4.00;92.00;;;;;;5487024;26;19998;-37
2024/04/18 04:54:55;;;;;;;5.45;1.60;;;4.00;92.00;;;;;;5487122;26;20510;-36
2024/04/18 04:57:21;;;;;;;2.97;1.60;;;4.00;92.00;;;;;;5487074;26;20452;-37
2024/04/18 04:59:46;;;;;;;2.88;1.33;;;4.00;92.00;;;;;;5486980;26;20446;-36
2024/04/18 05:02:12;;;;;;;4.60;1.60;;;4.00;91.90;;;;;;5486840;26;19998;-38
2024/04/18 05:04:38;;;;;;;2.35;1.80;;;4.00;91.90;;;;;;5486745;26;20002;-37
2024/04/18 05:07:04;;;;;;;5.85;1.80;;;4.00;91.90;;;;;;5486731;26;20002;-37
2024/04/18 05:09:29;;;;;;;4.13;1.88;;;4.00;91.90;;;;;;5486790;26;19998;-36
2024/04/18 05:11:55;;;;;;;3.05;1.70;;;4.10;92.00;;;;;;5485131;26;19995;-35
2024/04/18 05:14:22;;;;;;;2.22;1.60;;;4.10;92.00;;;;;;5486703;26;20066;-38
2024/04/18 05:16:48;;;;;;;3.42;1.80;;;4.20;92.00;;;;;;5484724;26;20070;-36
2024/04/18 05:19:14;;;;;;;2.63;1.55;;;4.20;92.00;;;;;;5487006;26;20013;-35
2024/04/18 05:21:40;;;;;;;4.28;2.05;;;4.20;92.10;;;;;;5486478;26;20003;-36
2024/04/18 05:24:05;;;;;;;6.13;1.95;;;4.30;92.10;;;;;;5486720;26;20374;-36
2024/04/18 05:26:34;;;;;;;3.55;1.77;;;4.40;92.10;;;;;;5486427;26;20002;-37
2024/04/18 05:31:46;;;;;;;3.35;1.63;;;4.40;92.00;;;;;;5486672;26;20070;-36
2024/04/18 05:34:12;;;;;;;3.65;2.13;;;4.50;92.10;;;;;;5486347;26;20002;-37
2024/04/18 05:36:37;;;;;;;3.17;1.80;;;4.50;92.00;;;;;;5486147;26;20013;-32
2024/04/18 05:39:03;;;;;;;4.47;2.08;;;4.50;92.00;;;;;;5484371;26;20047;-35
2024/04/18 05:41:30;;;;;;;3.72;1.85;;;4.50;92.10;;;;;;5485920;26;20013;-36
2024/04/18 05:43:56;;;;;;;6.13;1.95;;;4.60;92.10;;;;;;5485886;26;20002;-36
2024/04/18 05:46:22;;;;;;;4.07;1.90;;;4.60;92.10;;;;;;5484479;26;20043;-37
2024/04/18 05:48:48;;;;;;;2.60;2.17;;;4.80;92.40;;;;;;5488925;26;19998;-37
2024/04/18 05:51:14;;;;;;;5.05;2.30;;;4.80;92.20;;;;;;5490132;26;20002;-37
2024/04/18 05:53:39;;;;;;;4.10;1.95;;;4.90;92.10;;;;;;5490312;26;20319;-37
2024/04/18 05:56:05;;;;;;;7.57;1.90;;;4.90;92.10;;;;;;5489854;26;20455;-36
2024/04/18 05:58:32;;;;;;;3.22;2.05;;;5.00;92.10;;;;;;5489607;26;20070;-37
2024/04/18 06:00:58;;;;;;;4.45;2.20;;;5.00;92.10;;;;;;5489880;26;20020;-34
2024/04/18 06:03:25;;;;;;;3.63;2.10;;;5.00;92.10;;;;;;5489543;26;19998;-35
2024/04/18 06:05:53;;;;;;;6.00;2.28;;;5.10;92.10;;;;;;5489656;26;20002;-36
2024/04/18 06:08:19;;;;;;;5.07;2.10;;;5.10;92.10;;;;;;5489452;26;20030;-36
2024/04/18 06:10:45;;;;;;;6.32;2.47;;;5.10;92.10;;;;;;5489169;26;20006;-36
2024/04/18 06:13:11;;;;;;;3.83;1.98;;;5.20;92.10;;;;;;5489336;26;20005;-36
2024/04/18 06:15:41;;;;;;;2.17;1.75;;;5.20;92.00;;;;;;5489778;26;20006;-35
2024/04/18 06:18:07;;;;;;;4.43;2.00;;;5.30;92.00;;;;;;5489285;26;19997;-35
2024/04/18 06:20:39;;;;;;;5.30;2.13;;;5.30;92.00;;;;;;5489710;26;20012;-37
2024/04/18 06:23:04;;;;;;;5.75;2.00;;;5.40;92.00;;;;;;5489672;26;20014;-35
2024/04/18 06:25:30;;;;;;;2.00;1.80;;;5.50;91.90;;;;;;5489401;26;20002;-37
2024/04/18 06:27:56;;;;;;;3.00;1.90;;;5.60;91.90;;;;;;5489626;26;20504;-35
2024/04/18 06:30:22;;;;;;;3.85;1.90;;;5.60;91.80;;;;;;5489626;26;20006;-37
2024/04/18 06:32:47;;;;;;;3.47;1.92;;;5.70;91.70;;;;;;5489561;26;19998;-36
2024/04/18 06:35:13;;;;;;;5.93;1.73;;;5.80;91.60;;;;;;5489400;26;19994;-36
2024/04/18 06:37:38;;;;;;;5.70;2.10;;;5.80;91.50;;;;;;5489164;26;20519;-36
2024/04/18 06:40:04;;;;;;;3.78;1.60;;;5.90;91.50;;;;;;5489315;26;20067;-33
2024/04/18 06:42:30;;;;;;;2.88;1.77;;;6.00;91.40;;;;;;5488827;26;20463;-36
2024/04/18 06:44:55;;;;;;;2.75;1.55;;;6.00;91.30;;;;;;5486949;26;20002;-33
2024/04/18 06:47:21;;;;;;;4.22;1.88;;;6.10;91.30;;;;;;5489006;26;19994;-37
2024/04/18 06:49:46;;;;;;;4.45;1.85;;;6.20;91.20;;;;;;5489588;26;20336;-35
2024/04/18 06:52:12;;;;;;;4.95;2.28;;;6.20;91.10;;;;;;5489339;26;19998;-36
2024/04/18 06:54:38;;;;;;;4.47;1.67;;;6.30;91.10;;;;;;5489190;26;19998;-36
2024/04/18 06:57:04;;;;;;;5.13;1.75;;;6.30;91.10;;;;;;5489513;26;19994;-35
2024/04/18 06:59:29;;;;;;;2.88;1.60;;;6.40;91.00;;;;;;5487682;26;20002;-35
2024/04/18 07:01:55;;;;;;;3.05;1.63;;;6.50;90.90;;;;;;5488795;26;20002;-36
2024/04/18 07:04:20;;;;;;;4.47;1.70;;;6.50;90.70;;;;;;5488942;26;20013;-36
2024/04/18 07:06:46;;;;;;;4.68;1.63;;;6.60;90.60;;;;;;5488796;26;20006;-36
2024/04/18 07:09:11;;;;;;;2.70;1.20;;;6.60;90.40;;;;;;5488490;26;20446;-36
2024/04/18 07:11:37;;;;;;;2.83;1.50;;;6.70;90.50;;;;;;5489000;26;20408;-35
2024/04/18 07:14:02;;;;;;;4.85;1.42;;;6.80;90.50;;;;;;5488811;26;20490;-35
2024/04/18 07:16:28;;;;;;;2.20;1.40;;;6.80;90.40;;;;;;5487938;26;20002;-35
2024/04/18 07:18:54;;;;;;;5.13;1.55;;;6.90;90.10;;;;;;5486115;26;20078;-35
2024/04/18 07:21:19;;;;;;;3.08;1.30;;;7.00;90.10;;;;;;5485924;26;20408;-33
2024/04/18 07:23:45;;;;;;;4.75;1.58;;;7.00;90.10;;;;;;5485956;26;19998;-35
2024/04/18 07:26:11;;;;;;;4.15;1.30;;;7.10;89.90;;;;;;5485765;26;20467;-34
2024/04/18 07:28:36;;;;;;;3.45;1.30;;;7.10;89.50;;;;;;5486167;26;20002;-34
2024/04/18 07:31:02;;;;;;;2.95;1.27;;;7.20;89.70;;;;;;5485935;26;20424;-36
2024/04/18 07:33:28;;;;;;;4.43;1.20;;;7.30;89.60;;;;;;5484625;26;20009;-35
2024/04/18 07:35:59;;;;;;;2.92;1.13;;;7.30;89.40;;;;;;5488274;26;20070;-37
2024/04/18 07:38:25;;;;;;;2.85;1.13;;;7.40;89.40;;;;;;5488423;26;20038;-35
2024/04/18 07:40:51;;;;;;;5.68;1.10;;;7.40;89.40;;;;;;5488557;26;19998;-45
2024/04/18 07:43:16;;;;;;;2.33;1.20;;;7.50;89.30;;;;;;5488071;26;19998;-35
2024/04/18 07:45:42;;;;;;;4.88;1.15;;;7.60;89.30;;;;;;5488261;26;20442;-36
2024/04/18 07:48:08;;;;;;;3.20;1.42;;;7.60;89.20;;;;;;5488487;26;20074;-34
2024/04/18 07:50:34;;;;;;;3.08;1.10;;;7.70;89.00;;;;;;5488211;26;20090;-36
2024/04/18 07:52:59;;;;;;;2.83;1.13;;;7.80;88.80;;;;;;5488148;26;20002;-36
2024/04/18 07:55:25;;;;;;;1.83;1.20;;;7.90;88.70;;;;;;5488212;26;20012;-35
2024/04/18 07:57:51;;;;;;;3.03;1.40;;;8.00;88.60;;;;;;5488456;26;20469;-36
2024/04/18 08:00:17;;;;;;;5.75;1.40;;;8.10;88.30;;;;;;5488385;26;19998;-37
2024/04/18 08:02:43;;;;;;;2.83;1.40;;;8.10;88.00;;;;;;5488138;26;20515;-36
2024/04/18 08:05:09;;;;;;;2.58;1.20;;;8.20;87.40;;;;;;5486285;26;20054;-35
2024/04/18 08:07:35;;;;;;;4.47;1.23;;;8.30;87.10;;;;;;5488093;26;20013;-35
2024/04/18 08:10:01;;;;;;;2.50;1.35;;;8.30;86.20;;;;;;5487407;26;19998;-36
2024/04/18 08:12:26;;;;;;;1.75;1.23;;;8.30;86.40;;;;;;5488030;26;20013;-35
2024/04/18 08:14:52;;;;;;;2.22;1.25;;;8.30;86.00;;;;;;5488099;26;20074;-36
2024/04/18 08:17:17;;;;;;;2.03;1.20;;;8.30;86.00;;;;;;5487774;26;20010;-36
2024/04/18 08:19:43;;;;;;;3.53;0.90;;;8.30;85.70;;;;;;5487952;26;19998;-35
2024/04/18 08:22:08;;;;;;;3.13;1.13;;;8.40;85.70;;;;;;5488019;26;20066;-38
2024/04/18 08:24:35;;;;;;;2.17;1.00;;;8.50;85.80;;;;;;5488152;26;20779;-35
2024/04/18 08:27:01;;;;;;;2.65;1.08;;;8.60;84.60;;;;;;5488209;26;20014;-35
2024/04/18 08:29:26;;;;;;;1.77;1.00;;;8.80;84.20;;;;;;5487851;26;20010;-35
2024/04/18 08:31:54;;;;;;;2.60;1.27;;;8.90;83.20;;;;;;5487732;26;19998;-36
2024/04/18 08:34:20;;;;;;;2.38;1.00;;;9.00;82.90;;;;;;5487676;26;20006;-36
2024/04/18 08:36:46;;;;;;;3.38;1.30;;;9.10;81.80;;;;;;5487717;26;20002;-36
2024/04/18 08:39:12;;;;;;;3.13;1.00;;;9.20;80.00;;;;;;5488101;26;20005;-38
2024/04/18 08:41:38;;;;;;;4.85;1.08;;;9.30;79.80;;;;;;5488200;26;20074;-35
2024/04/18 08:44:05;;;;;;;3.67;1.00;;;9.40;79.00;;;;;;5485712;26;19998;-37
2024/04/18 08:46:38;;;;;;;1.83;0.85;;;9.40;77.20;;;;;;5485987;26;20006;-37
2024/04/18 08:49:09;;;;;;;3.13;0.93;;;9.50;77.60;;;;;;5487531;26;19994;-34
2024/04/18 08:51:36;;;;;;;1.25;0.80;;;9.60;77.20;;;;;;5487845;26;20013;-35
2024/04/18 08:54:03;;;;;;;1.65;0.77;;;9.70;76.30;;;;;;5487337;26;20002;-36
2024/04/18 08:56:32;;;;;;;2.85;0.90;;;9.60;76.10;;;;;;5487625;26;19998;-35
2024/04/18 08:58:58;;;;;;;1.85;0.88;;;9.60;76.70;;;;;;5487321;26;20002;-34
2024/04/18 09:01:24;;;;;;;2.47;0.60;;;9.70;75.90;;;;;;5487388;26;20112;-35
2024/04/18 09:03:55;;;;;;;3.15;0.77;;;9.70;75.50;;;;;;5487531;26;20130;-35
2024/04/18 09:06:21;;;;;;;1.58;0.77;;;9.90;74.60;;;;;;5486989;26;20043;-36
2024/04/18 09:08:51;;;;;;;2.92;0.80;;;10.00;74.00;;;;;;5487033;26;20014;-35
2024/04/18 09:11:17;;;;;;;2.53;0.88;;;10.10;75.00;;;;;;5487079;26;20134;-36
2024/04/18 09:13:46;;;;;;;1.73;0.80;;;10.20;74.20;;;;;;5487420;26;20442;-37
2024/04/18 09:16:12;;;;;;;1.35;0.60;;;10.30;74.80;;;;;;5487123;26;20067;-39
2024/04/18 09:18:38;;;;;;;1.48;0.65;;;10.20;72.80;;;;;;5487357;26;20038;-35
2024/04/18 09:21:10;;;;;;;1.25;0.45;;;10.20;72.40;;;;;;5487106;26;20010;-36
2024/04/18 09:23:39;;;;;;;1.10;0.40;;;10.00;72.10;;;;;;5489323;26;20133;-35
2024/04/18 09:26:05;;;;;;;1.10;0.45;;;10.00;73.10;;;;;;5490375;26;20017;-36
2024/04/18 09:28:31;;;;;;;1.05;0.40;;;10.00;73.30;;;;;;5490536;26;20002;-36
2024/04/18 09:30:58;;;;;;;0.63;0.40;;;10.00;73.10;;;;;;5490568;26;20006;-35
2024/04/18 09:33:25;;;;;;;1.75;0.70;;;10.10;72.00;;;;;;5490423;26;19995;-36
2024/04/18 09:35:56;;;;;;;2.53;0.77;;;10.20;71.90;;;;;;5490404;26;20076;-36
2024/04/18 09:38:22;;;;;;;0.73;0.55;;;10.40;71.80;;;;;;5490094;26;20002;-36
2024/04/18 09:41:12;;;;;;;2.30;0.60;;;10.60;71.90;;;;;;5490191;26;20012;-36
2024/04/18 09:44:02;;;;;;;1.63;0.52;;;10.80;71.30;;;;;;5490099;26;20337;-33
2024/04/18 09:46:31;;;;;;;2.10;0.50;;;10.90;69.90;;;;;;5490134;26;20082;-35
2024/04/18 09:48:57;;;;;;;1.85;0.55;;;10.90;69.00;;;;;;5490621;26;19998;-36
2024/04/18 09:51:23;;;;;;;2.05;0.60;;;10.90;69.20;;;;;;5490347;26;20066;-36
2024/04/18 09:53:49;;;;;;;1.13;0.30;;;10.90;68.70;;;;;;5490363;26;20013;-35
2024/04/18 09:56:17;;;;;;;2.08;0.40;;;11.00;69.00;;;;;;5490051;26;20010;-34
2024/04/18 09:58:44;;;;;;;2.55;0.80;;;11.00;68.80;;;;;;5490072;26;20023;-35
2024/04/18 10:01:10;;;;;;;1.40;0.52;;;11.10;69.20;;;;;;5489866;26;20340;-34
2024/04/18 10:03:37;;;;;;;3.85;0.90;;;11.30;69.30;;;;;;5489879;26;20002;-36
2024/04/18 10:06:06;;;;;;;4.53;0.80;;;11.30;69.00;;;;;;5489738;26;20069;-36
2024/04/18 10:08:47;;;;;;;1.50;0.70;;;11.20;69.80;;;;;;5489740;26;20009;-36
2024/04/18 10:11:13;;;;;;;1.42;0.70;;;11.10;70.50;;;;;;5489872;26;20001;-36
2024/04/18 10:13:42;;;;;;;1.33;0.82;;;11.00;70.50;;;;;;5489926;26;20044;-36
2024/04/18 10:16:13;;;;;;;2.60;0.43;;;10.90;71.10;;;;;;5489708;26;19998;-35
2024/04/18 10:18:40;;;;;;;2.50;0.70;;;10.80;71.60;;;;;;5489820;26;20006;-35
2024/04/18 10:21:26;;;;;;;2.00;0.70;;;10.80;71.80;;;;;;5489701;26;19998;-33
2024/04/18 10:23:53;;;;;;;0.93;0.65;;;10.80;72.00;;;;;;5489505;26;19998;-38
2024/04/18 10:26:21;;;;;;;2.15;0.80;;;10.80;72.20;;;;;;5489895;26;19994;-34
2024/04/18 10:28:48;;;;;;;1.65;0.65;;;10.90;72.20;;;;;;5489614;26;19990;-35
2024/04/18 10:31:15;;;;;;;2.03;0.70;;;11.10;72.00;;;;;;5489766;26;20439;-36
2024/04/18 10:33:41;;;;;;;2.17;0.70;;;11.30;71.40;;;;;;5489540;26;19998;-35
2024/04/18 10:36:13;;;;;;;1.08;0.50;;;11.30;69.10;;;;;;5489713;26;20008;-36
2024/04/18 10:38:47;;;;;;;2.33;0.68;;;11.30;68.50;;;;;;5489400;26;20017;-35
2024/04/18 10:41:17;;;;;;;1.35;0.63;;;11.30;69.10;;;;;;5489429;26;19998;-35
2024/04/18 10:43:44;;;;;;;1.00;0.50;;;11.30;69.30;;;;;;5489146;26;20331;-37
2024/04/18 10:46:10;;;;;;;1.85;0.60;;;11.30;69.70;;;;;;5488897;26;20009;-35
2024/04/18 10:48:39;;;;;;;1.25;0.47;;;11.30;69.20;;;;;;5489617;26;20013;-36
2024/04/18 10:51:06;;;;;;;1.50;0.52;;;11.30;68.90;;;;;;5489562;26;20439;-36
2024/04/18 10:53:34;;;;;;;1.70;0.68;;;11.40;69.10;;;;;;5489436;26;20013;-37
2024/04/18 10:56:00;;;;;;;2.58;0.50;;;11.30;69.40;;;;;;5489167;26;20030;-36
2024/04/18 10:58:27;;;;;;;3.13;0.65;;;11.30;69.60;;;;;;5489421;26;20054;-36
2024/04/18 11:01:02;;;;;;;1.38;0.47;;;11.30;69.50;;;;;;5489248;26;20074;-36
2024/04/18 11:03:28;;;;;;;1.55;0.55;;;11.30;68.50;;;;;;5489015;26;19994;-35
2024/04/18 11:05:59;;;;;;;1.58;0.50;;;11.40;68.20;;;;;;5488963;26;20010;-36
2024/04/18 11:08:25;;;;;;;2.17;0.50;;;11.40;68.60;;;;;;5488793;26;19994;-35
2024/04/18 11:10:51;;;;;;;1.50;0.50;;;11.60;68.80;;;;;;5488753;26;20431;-36
2024/04/18 11:13:18;;;;;;;1.30;0.50;;;11.80;68.60;;;;;;5489001;26;20070;-36
2024/04/18 11:15:43;;;;;;;1.05;0.60;;;11.90;67.60;;;;;;5488959;26;20012;-37
2024/04/18 11:18:09;;;;;;;2.15;0.63;;;12.00;65.50;;;;;;5489257;26;20006;-35
2024/04/18 11:20:35;;;;;;;1.92;0.52;;;12.10;65.50;;;;;;5489971;26;20445;-37
2024/04/18 11:23:04;;;;;;;1.02;0.52;;;12.00;65.00;;;;;;5487694;26;20008;-34
2024/04/18 11:25:31;;;;;;;2.85;0.40;;;12.00;65.00;;;;;;5489223;26;20074;-37
2024/04/18 11:27:57;;;;;;;2.58;0.50;;;12.00;65.50;;;;;;5489158;26;20002;-34
2024/04/18 11:30:24;;;;;;;0.80;0.40;;;12.00;64.30;;;;;;5488769;26;20330;-35
2024/04/18 11:32:54;;;;;;;1.40;0.60;;;12.00;65.30;;;;;;5488777;26;20443;-35
2024/04/18 11:35:20;;;;;;;1.75;0.50;;;12.10;65.20;;;;;;5488461;26;20439;-36
2024/04/18 11:37:45;;;;;;;1.23;0.50;;;12.10;63.70;;;;;;5488730;26;20078;-36
2024/04/18 11:40:11;;;;;;;1.48;0.43;;;12.10;63.70;;;;;;5488592;26;20002;-36
2024/04/18 11:42:37;;;;;;;1.42;0.57;;;12.00;64.40;;;;;;5488829;26;20013;-36
2024/04/18 11:45:03;;;;;;;2.08;0.80;;;12.10;64.00;;;;;;5487101;26;20005;-36
2024/04/18 11:47:28;;;;;;;1.52;0.40;;;12.10;64.70;;;;;;5488096;26;20002;-35
2024/04/18 11:49:54;;;;;;;0.73;0.38;;;12.10;64.40;;;;;;5488240;26;20375;-36
2024/04/18 11:52:20;;;;;;;1.33;0.63;;;12.20;64.30;;;;;;5488158;26;20066;-36
2024/04/18 11:54:45;;;;;;;0.77;0.45;;;12.20;64.30;;;;;;5488370;26;20446;-35
2024/04/18 11:57:11;;;;;;;1.38;0.63;;;12.40;64.60;;;;;;5487879;26;20002;-36
2024/04/18 11:59:39;;;;;;;1.33;0.50;;;12.60;64.80;;;;;;5488202;26;20450;-36
2024/04/18 12:02:06;;;;;;;2.58;0.70;;;12.90;64.50;;;;;;5487850;26;20027;-36
2024/04/18 12:04:31;;;;;;;1.73;0.80;;;13.10;62.80;;;;;;5487815;26;19994;-36
2024/04/18 12:06:57;;;;;;;2.30;0.70;;;13.10;62.70;;;;;;5487170;26;20009;-32
2024/04/18 12:09:22;;;;;;;1.38;0.57;;;13.00;62.10;;;;;;5487787;26;20009;-37
2024/04/18 12:11:48;;;;;;;1.65;0.80;;;12.90;61.90;;;;;;5487868;26;20357;-37
2024/04/18 12:14:13;;;;;;;4.30;0.90;;;12.80;62.10;;;;;;5487753;26;20024;-36
2024/04/18 12:16:39;;;;;;;1.67;0.68;;;12.70;60.40;;;;;;5487908;26;20032;-36
2024/04/18 12:19:05;;;;;;;1.50;0.60;;;12.70;62.00;;;;;;5487862;26;20002;-36
2024/04/18 12:21:30;;;;;;;1.90;0.68;;;12.70;61.00;;;;;;5487719;26;20490;-36
2024/04/18 12:23:56;;;;;;;2.13;0.63;;;12.70;60.20;;;;;;5487750;26;20421;-36
2024/04/18 12:26:22;;;;;;;1.98;0.50;;;12.60;59.90;;;;;;5487548;26;20010;-36
2024/04/18 12:28:47;;;;;;;1.67;0.52;;;12.60;58.80;;;;;;5487622;26;20075;-35
2024/04/18 12:31:13;;;;;;;0.88;0.50;;;12.50;58.70;;;;;;5487662;26;19998;-36
2024/04/18 12:33:38;;;;;;;0.88;0.65;;;12.60;58.80;;;;;;5487734;26;20013;-35
2024/04/18 12:36:05;;;;;;;1.67;0.60;;;12.70;59.10;;;;;;5487456;26;20363;-35
2024/04/18 12:38:30;;;;;;;1.35;0.40;;;12.90;59.40;;;;;;5487225;26;20070;-35
2024/04/18 12:40:56;;;;;;;0.45;0.30;;;13.10;58.50;;;;;;5485844;26;20513;-35
2024/04/18 12:43:21;;;;;;;2.30;0.50;;;13.20;57.90;;;;;;5487438;26;20030;-36
2024/04/18 12:45:47;;;;;;;0.65;0.30;;;13.30;57.50;;;;;;5487573;26;19998;-35
2024/04/18 12:48:13;;;;;;;0.98;0.35;;;13.40;56.30;;;;;;5487706;26;20001;-36
2024/04/18 12:50:38;;;;;;;1.40;0.40;;;13.50;55.60;;;;;;5487622;26;20002;-36